Aérodrome :
LOGIN :

S'inscrire | Disclaimer

   EN    FR    IT 

 










Légende :    VFR   VFR Marginal   IFR   IFR Intensif   IFR Très Intensif
Visi : 
Plafond : 
>= 8 km
>= 3000ft
5 à 8 km
1000 à 3000 ft
1500m à 5 km
500 à 1000 ft
800 à 1500m
200 à 500 ft
< 800m
< 200 ft
Symboles :   Orages  Brouillard  Fortes neiges  Fortes précipitations  Vent > 20 kt
SIGMETs :   Divers  Orages  Givrage  Turbulence  Onde Orograph.  Cendres Volcan.







- Altitude de l'aérodrome : 203 ft
- Code IATA : XMJ
- Voir les cartes d'approche


LFBM - Mont-De-Marsan

DERNIER METAR :
  • 240930Z AUTO 09006KT 050V140 CAVOK 23/16 Q1022

METARs EXPIRÉS :
  • 240900Z AUTO 07006KT 040V130 9999 FEW044 22/16 Q1022
  • 240830Z AUTO 06007KT CAVOK 21/15 Q1022
  • 240800Z AUTO 08006KT 020V110 CAVOK 21/15 Q1022
  • 240730Z AUTO VRB03KT CAVOK 19/15 Q1022
  • 240700Z AUTO VRB02KT CAVOK 16/14 Q1022

TAF TAF LFBM
Valide du 24 à 09h jusqu'au 25 à 09h UTC


240800Z 2409/2509 08005KT CAVOK
Pas de NOTAMs connus pour ce terrain.



MET'MAP, la Météo Aéronautique d'un coup d'oeil ! - Copyright ORBIFLY Décembre 2007 - Disclaimer

ORBIFLY MET'MAP TEAM :

Programmation & Développement : Alexandra Zaïnal
Conception & Développement : Baudouin d'Aumeries
Co-Programmation & Développement : Marc-Olivier Méhu
Soutien technique & logistique : Manuel Goepfert

Contact : metmap@orbifly.com




SOURCES & CREDITS :

   NOAA